^^
Saratoga-Weather Station Historical Data
Daily Summary for July 18, 2021 Units:  Both    English   Metric
Daily Weekly Monthly Yearly Custom
  High: Low: Average:
Temperature: 45.9 °F /  7.7 °C 39.4 °F /  4.1 °C 42.6 °F /  5.9 °C
Dew Point: 43.5 °F /  6.4 °C 38.5 °F /  3.6 °C 41.2 °F /  5.1 °C
Humidity: 97% 90% 95%
Wind Speed: 7mph /  11.3km/h - 1.3mph /  2.1km/h
Wind Gust: 9mph /  14.5km/h - -
Wind- - West
Pressure: 30.5 in /  1032.5 hPa 30.4 in /  1028.1 hPa -
Precipitation: 0 in /  0.0 mm    
Historical Graphs
 
 
Tabular Data for July 18, 2021
Time Temperature Dew Point Pressure Wind Wind Speed Wind Gust Humidity Rainfall Rate (Hourly) solar
00:04 44.4 °F /  6.9 °C 43.2 °F /  6.2 °C 30.4in /  1028.1hPa West 2mph /  3.2km/h 3mph /  4.8km/h 95% 0in /  0.0mm 0 W/m2
00:09 44.4 °F /  6.9 °C 43.2 °F /  6.2 °C 30.4in /  1028.1hPa Calm   2mph /  3.2km/h 95% 0in /  0.0mm 0 W/m2
00:14 44.4 °F /  6.9 °C 43.2 °F /  6.2 °C 30.4in /  1028.1hPa West 0.9mph /  1.4km/h 2mph /  3.2km/h 95% 0in /  0.0mm 0 W/m2
00:19 44.4 °F /  6.9 °C 43.2 °F /  6.2 °C 30.4in /  1028.1hPa WNW 0.9mph /  1.4km/h 4mph /  6.4km/h 95% 0in /  0.0mm 0 W/m2
00:24 44.6 °F /  7 °C 43.3 °F /  6.3 °C 30.4in /  1028.1hPa WNW 2mph /  3.2km/h 3mph /  4.8km/h 95% 0in /  0.0mm 0 W/m2
00:29 44.6 °F /  7 °C 43.3 °F /  6.3 °C 30.4in /  1028.1hPa West 2.9mph /  4.7km/h 4mph /  6.4km/h 95% 0in /  0.0mm 0 W/m2
00:34 44.8 °F /  7.1 °C 43.5 °F /  6.4 °C 30.4in /  1028.1hPa Calm   1mph /  1.6km/h 95% 0in /  0.0mm 0 W/m2
00:39 44.8 °F /  7.1 °C 43.5 °F /  6.4 °C 30.4in /  1028.1hPa Calm   1mph /  1.6km/h 95% 0in /  0.0mm 0 W/m2
00:44 44.8 °F /  7.1 °C 43.5 °F /  6.4 °C 30.4in /  1028.1hPa Calm   1mph /  1.6km/h 95% 0in /  0.0mm 0 W/m2
00:49 44.8 °F /  7.1 °C 43.5 °F /  6.4 °C 30.4in /  1028.1hPa WNW 0.9mph /  1.4km/h 3mph /  4.8km/h 95% 0in /  0.0mm 0 W/m2
00:54 44.8 °F /  7.1 °C 43.5 °F /  6.4 °C 30.4in /  1028.1hPa WNW 2mph /  3.2km/h 2mph /  3.2km/h 95% 0in /  0.0mm 0 W/m2
00:59 44.8 °F /  7.1 °C 43.5 °F /  6.4 °C 30.4in /  1028.1hPa NW 0.9mph /  1.4km/h 2mph /  3.2km/h 95% 0in /  0.0mm 0 W/m2
01:04 44.8 °F /  7.1 °C 43.5 °F /  6.4 °C 30.4in /  1028.1hPa WNW 2mph /  3.2km/h 4mph /  6.4km/h 95% 0in /  0.0mm 0 W/m2
01:09 44.6 °F /  7 °C 43.3 °F /  6.3 °C 30.4in /  1028.1hPa Calm   2mph /  3.2km/h 95% 0in /  0.0mm 0 W/m2
01:14 44.4 °F /  6.9 °C 43.2 °F /  6.2 °C 30.4in /  1028.1hPa WNW 0.9mph /  1.4km/h 4mph /  6.4km/h 95% 0in /  0.0mm 0 W/m2
01:19 44.4 °F /  6.9 °C 43.2 °F /  6.2 °C 30.4in /  1028.1hPa WNW 0.9mph /  1.4km/h 2mph /  3.2km/h 95% 0in /  0.0mm 0 W/m2
01:24 44.2 °F /  6.8 °C 43 °F /  6.1 °C 30.4in /  1028.1hPa Calm   2mph /  3.2km/h 95% 0in /  0.0mm 0 W/m2
01:29 44.2 °F /  6.8 °C 42.6 °F /  5.9 °C 30.4in /  1028.1hPa Calm     94% 0in /  0.0mm 0 W/m2
01:34 44.1 °F /  6.7 °C 42.4 °F /  5.8 °C 30.4in /  1028.1hPa WNW 0.9mph /  1.4km/h 2mph /  3.2km/h 94% 0in /  0.0mm 0 W/m2
01:39 43.9 °F /  6.6 °C 42.3 °F /  5.7 °C 30.4in /  1028.1hPa West 0.9mph /  1.4km/h 3mph /  4.8km/h 94% 0in /  0.0mm 0 W/m2
01:44 43.5 °F /  6.4 °C 41.9 °F /  5.5 °C 30.4in /  1028.1hPa Calm     94% 0in /  0.0mm 0 W/m2
01:49 43.3 °F /  6.3 °C 41.7 °F /  5.4 °C 30.4in /  1028.1hPa Calm   3mph /  4.8km/h 94% 0in /  0.0mm 0 W/m2
01:54 43.2 °F /  6.2 °C 41.5 °F /  5.3 °C 30.4in /  1028.1hPa West 2mph /  3.2km/h 2mph /  3.2km/h 94% 0in /  0.0mm 0 W/m2
01:59 43 °F /  6.1 °C 41.4 °F /  5.2 °C 30.4in /  1028.1hPa West 0.9mph /  1.4km/h 2mph /  3.2km/h 94% 0in /  0.0mm 0 W/m2
02:05 42.6 °F /  5.9 °C 41 °F /  5 °C 30.4in /  1028.1hPa Calm   1mph /  1.6km/h 94% 0in /  0.0mm 0 W/m2
02:10 42.4 °F /  5.8 °C 41.2 °F /  5.1 °C 30.4in /  1028.1hPa Calm     95% 0in /  0.0mm 0 W/m2
02:15 42.4 °F /  5.8 °C 40.8 °F /  4.9 °C 30.4in /  1028.1hPa Calm     94% 0in /  0.0mm 0 W/m2
02:20 42.3 °F /  5.7 °C 41 °F /  5 °C 30.4in /  1028.1hPa Calm   3mph /  4.8km/h 95% 0in /  0.0mm 0 W/m2
02:25 42.3 °F /  5.7 °C 41 °F /  5 °C 30.4in /  1028.1hPa WSW 0.9mph /  1.4km/h 2mph /  3.2km/h 95% 0in /  0.0mm 0 W/m2
02:30 42.3 °F /  5.7 °C 41 °F /  5 °C 30.4in /  1028.1hPa Calm   1mph /  1.6km/h 95% 0in /  0.0mm 0 W/m2
02:35 42.3 °F /  5.7 °C 41 °F /  5 °C 30.4in /  1028.1hPa Calm   2mph /  3.2km/h 95% 0in /  0.0mm 0 W/m2
02:40 42.4 °F /  5.8 °C 41.2 °F /  5.1 °C 30.4in /  1028.1hPa West 0.9mph /  1.4km/h 2mph /  3.2km/h 95% 0in /  0.0mm 0 W/m2
02:45 42.3 °F /  5.7 °C 41 °F /  5 °C 30.4in /  1028.1hPa Calm     95% 0in /  0.0mm 0 W/m2
02:50 42.3 °F /  5.7 °C 41 °F /  5 °C 30.4in /  1028.1hPa West 2mph /  3.2km/h 3mph /  4.8km/h 95% 0in /  0.0mm 0 W/m2
02:55 42.3 °F /  5.7 °C 41 °F /  5 °C 30.4in /  1028.1hPa West 0.9mph /  1.4km/h 3mph /  4.8km/h 95% 0in /  0.0mm 0 W/m2
03:00 42.1 °F /  5.6 °C 40.8 °F /  4.9 °C 30.4in /  1028.5hPa Calm   2mph /  3.2km/h 95% 0in /  0.0mm 0 W/m2
03:05 41.9 °F /  5.5 °C 40.6 °F /  4.8 °C 30.4in /  1028.5hPa Calm     95% 0in /  0.0mm 0 W/m2
03:10 41.7 °F /  5.4 °C 40.5 °F /  4.7 °C 30.4in /  1028.5hPa WNW 2mph /  3.2km/h 2mph /  3.2km/h 95% 0in /  0.0mm 0 W/m2
03:15 41.5 °F /  5.3 °C 40.3 °F /  4.6 °C 30.4in /  1028.5hPa Calm     95% 0in /  0.0mm 0 W/m2
03:20 41.5 °F /  5.3 °C 40.3 °F /  4.6 °C 30.4in /  1028.8hPa Calm     95% 0in /  0.0mm 0 W/m2
03:25 41.4 °F /  5.2 °C 40.1 °F /  4.5 °C 30.4in /  1028.5hPa Calm     95% 0in /  0.0mm 0 W/m2
03:30 41.4 °F /  5.2 °C 40.3 °F /  4.6 °C 30.4in /  1028.5hPa WNW 0.9mph /  1.4km/h 2mph /  3.2km/h 96% 0in /  0.0mm 0 W/m2
03:35 41.5 °F /  5.3 °C 40.5 °F /  4.7 °C 30.4in /  1028.5hPa WNW 0.9mph /  1.4km/h 2mph /  3.2km/h 96% 0in /  0.0mm 0 W/m2
03:40 41.5 °F /  5.3 °C 40.5 °F /  4.7 °C 30.4in /  1028.5hPa WNW 0.9mph /  1.4km/h 3mph /  4.8km/h 96% 0in /  0.0mm 0 W/m2
03:45 41.5 °F /  5.3 °C 40.5 °F /  4.7 °C 30.4in /  1028.8hPa WNW 0.9mph /  1.4km/h 3mph /  4.8km/h 96% 0in /  0.0mm 0 W/m2
03:50 41.5 °F /  5.3 °C 40.5 °F /  4.7 °C 30.4in /  1028.8hPa West 2mph /  3.2km/h 3mph /  4.8km/h 96% 0in /  0.0mm 0 W/m2
03:55 41.7 °F /  5.4 °C 40.6 °F /  4.8 °C 30.4in /  1028.8hPa West 0.9mph /  1.4km/h 3mph /  4.8km/h 96% 0in /  0.0mm 0 W/m2
04:00 42.1 °F /  5.6 °C 41 °F /  5 °C 30.4in /  1028.8hPa WNW 2mph /  3.2km/h 5mph /  8km/h 96% 0in /  0.0mm 0 W/m2
04:05 42.1 °F /  5.6 °C 41 °F /  5 °C 30.4in /  1029.1hPa Calm   1mph /  1.6km/h 96% 0in /  0.0mm 0 W/m2
04:10 42.1 °F /  5.6 °C 41 °F /  5 °C 30.4in /  1028.8hPa Calm   5mph /  8km/h 96% 0in /  0.0mm 0 W/m2
04:15 41.7 °F /  5.4 °C 40.6 °F /  4.8 °C 30.4in /  1029.1hPa WNW 0.9mph /  1.4km/h 1mph /  1.6km/h 96% 0in /  0.0mm 0 W/m2
04:20 41.5 °F /  5.3 °C 40.5 °F /  4.7 °C 30.4in /  1029.1hPa Calm     96% 0in /  0.0mm 0 W/m2
04:25 41.5 °F /  5.3 °C 40.5 °F /  4.7 °C 30.4in /  1029.1hPa Calm     96% 0in /  0.0mm 0 W/m2
04:30 41.4 °F /  5.2 °C 40.3 °F /  4.6 °C 30.4in /  1029.1hPa WNW 0.9mph /  1.4km/h 3mph /  4.8km/h 96% 0in /  0.0mm 0 W/m2
04:35 41.2 °F /  5.1 °C 40.1 °F /  4.5 °C 30.4in /  1028.8hPa Calm     96% 0in /  0.0mm 0 W/m2
04:40 41 °F /  5 °C 39.9 °F /  4.4 °C 30.4in /  1029.1hPa Calm   3mph /  4.8km/h 96% 0in /  0.0mm 0 W/m2
04:45 40.8 °F /  4.9 °C 39.7 °F /  4.3 °C 30.4in /  1029.1hPa Calm     96% 0in /  0.0mm 0 W/m2
04:50 40.6 °F /  4.8 °C 39.6 °F /  4.2 °C 30.4in /  1029.1hPa Calm     96% 0in /  0.0mm 0 W/m2
04:55 40.6 °F /  4.8 °C 39.6 °F /  4.2 °C 30.4in /  1029.1hPa WNW 2mph /  3.2km/h 2mph /  3.2km/h 96% 0in /  0.0mm 0 W/m2
05:00 41 °F /  5 °C 39.9 °F /  4.4 °C 30.4in /  1029.1hPa WNW 2mph /  3.2km/h 3mph /  4.8km/h 96% 0in /  0.0mm 0 W/m2
05:05 41.2 °F /  5.1 °C 40.1 °F /  4.5 °C 30.4in /  1029.1hPa Calm   2mph /  3.2km/h 96% 0in /  0.0mm 0 W/m2
05:10 41.2 °F /  5.1 °C 40.1 °F /  4.5 °C 30.4in /  1029.1hPa Calm     96% 0in /  0.0mm 0 W/m2
05:15 41.2 °F /  5.1 °C 40.1 °F /  4.5 °C 30.4in /  1029.5hPa West 0.9mph /  1.4km/h 2mph /  3.2km/h 96% 0in /  0.0mm 0 W/m2
05:20 41.2 °F /  5.1 °C 40.1 °F /  4.5 °C 30.4in /  1029.5hPa West 2mph /  3.2km/h 3mph /  4.8km/h 96% 0in /  0.0mm 0 W/m2
05:25 41.2 °F /  5.1 °C 40.1 °F /  4.5 °C 30.4in /  1029.5hPa West 0.9mph /  1.4km/h 2mph /  3.2km/h 96% 0in /  0.0mm 0 W/m2
05:30 41.2 °F /  5.1 °C 40.1 °F /  4.5 °C 30.4in /  1029.5hPa West 0.9mph /  1.4km/h 3mph /  4.8km/h 96% 0in /  0.0mm 0 W/m2
05:35 41.2 °F /  5.1 °C 40.1 °F /  4.5 °C 30.4in /  1029.5hPa NW 4mph /  6.4km/h 4mph /  6.4km/h 96% 0in /  0.0mm 0 W/m2
05:40 41.2 °F /  5.1 °C 40.1 °F /  4.5 °C 30.4in /  1029.5hPa NW 0.9mph /  1.4km/h 3mph /  4.8km/h 96% 0in /  0.0mm 0 W/m2
05:45 40.8 °F /  4.9 °C 39.7 °F /  4.3 °C 30.4in /  1029.5hPa West 2mph /  3.2km/h 6mph /  9.7km/h 96% 0in /  0.0mm 0 W/m2
05:50 40.8 °F /  4.9 °C 39.7 °F /  4.3 °C 30.4in /  1029.5hPa Calm   3mph /  4.8km/h 96% 0in /  0.0mm 0 W/m2
05:55 40.8 °F /  4.9 °C 39.7 °F /  4.3 °C 30.4in /  1029.5hPa West 0.9mph /  1.4km/h 2mph /  3.2km/h 96% 0in /  0.0mm 0 W/m2
06:00 40.8 °F /  4.9 °C 39.7 °F /  4.3 °C 30.4in /  1029.5hPa WNW 2mph /  3.2km/h 2mph /  3.2km/h 96% 0in /  0.0mm 0 W/m2
06:05 40.8 °F /  4.9 °C 39.7 °F /  4.3 °C 30.4in /  1029.5hPa Calm   1mph /  1.6km/h 96% 0in /  0.0mm 0 W/m2
06:10 40.6 °F /  4.8 °C 39.6 °F /  4.2 °C 30.4in /  1029.8hPa NW 0.9mph /  1.4km/h 2mph /  3.2km/h 96% 0in /  0.0mm 0 W/m2
06:15 40.6 °F /  4.8 °C 39.6 °F /  4.2 °C 30.4in /  1029.8hPa NNW 2mph /  3.2km/h 2mph /  3.2km/h 96% 0in /  0.0mm 0 W/m2
06:20 40.6 °F /  4.8 °C 39.6 °F /  4.2 °C 30.4in /  1029.8hPa Calm   2mph /  3.2km/h 96% 0in /  0.0mm 0 W/m2
06:25 40.5 °F /  4.7 °C 39.4 °F /  4.1 °C 30.4in /  1029.8hPa NW 2mph /  3.2km/h 3mph /  4.8km/h 96% 0in /  0.0mm 0 W/m2
06:30 40.5 °F /  4.7 °C 39.4 °F /  4.1 °C 30.4in /  1029.8hPa WNW 0.9mph /  1.4km/h 3mph /  4.8km/h 96% 0in /  0.0mm 0 W/m2
06:35 40.5 °F /  4.7 °C 39.4 °F /  4.1 °C 30.4in /  1029.8hPa West 2mph /  3.2km/h 3mph /  4.8km/h 96% 0in /  0.0mm 0 W/m2
06:41 40.3 °F /  4.6 °C 39.2 °F /  4 °C 30.4in /  1029.8hPa WNW 2.9mph /  4.7km/h 4mph /  6.4km/h 96% 0in /  0.0mm 0 W/m2
06:46 40.1 °F /  4.5 °C 39 °F /  3.9 °C 30.4in /  1029.8hPa WNW 2mph /  3.2km/h 3mph /  4.8km/h 96% 0in /  0.0mm 0 W/m2
06:51 39.9 °F /  4.4 °C 38.8 °F /  3.8 °C 30.4in /  1029.8hPa West 0.9mph /  1.4km/h 2mph /  3.2km/h 96% 0in /  0.0mm 0 W/m2
06:56 39.7 °F /  4.3 °C 38.7 °F /  3.7 °C 30.4in /  1029.8hPa WNW 2mph /  3.2km/h 3mph /  4.8km/h 96% 0in /  0.0mm 0 W/m2
07:01 39.7 °F /  4.3 °C 38.7 °F /  3.7 °C 30.4in /  1029.8hPa WNW 0.9mph /  1.4km/h 3mph /  4.8km/h 96% 0in /  0.0mm 0 W/m2
07:06 39.7 °F /  4.3 °C 38.7 °F /  3.7 °C 30.4in /  1029.8hPa NW 0.9mph /  1.4km/h 2mph /  3.2km/h 96% 0in /  0.0mm 0 W/m2
07:11 39.7 °F /  4.3 °C 38.7 °F /  3.7 °C 30.4in /  1029.8hPa Calm   2mph /  3.2km/h 96% 0in /  0.0mm 0 W/m2
07:16 39.7 °F /  4.3 °C 38.7 °F /  3.7 °C 30.4in /  1029.8hPa NNW 0.9mph /  1.4km/h 2mph /  3.2km/h 96% 0in /  0.0mm 0 W/m2
07:21 39.7 °F /  4.3 °C 38.7 °F /  3.7 °C 30.4in /  1029.8hPa NNW 0.9mph /  1.4km/h 2mph /  3.2km/h 96% 0in /  0.0mm 0 W/m2
07:26 39.7 °F /  4.3 °C 38.7 °F /  3.7 °C 30.4in /  1029.8hPa Calm     96% 0in /  0.0mm 0 W/m2
07:31 39.6 °F /  4.2 °C 38.5 °F /  3.6 °C 30.4in /  1029.8hPa Calm   1mph /  1.6km/h 96% 0in /  0.0mm 0 W/m2
07:36 39.6 °F /  4.2 °C 38.8 °F /  3.8 °C 30.4in /  1030.1hPa Calm   2mph /  3.2km/h 97% 0in /  0.0mm 0 W/m2
07:41 39.6 °F /  4.2 °C 38.8 °F /  3.8 °C 30.4in /  1030.1hPa NW 0.9mph /  1.4km/h 2mph /  3.2km/h 97% 0in /  0.0mm 0 W/m2
07:46 39.6 °F /  4.2 °C 38.8 °F /  3.8 °C 30.4in /  1030.1hPa Calm   2mph /  3.2km/h 97% 0in /  0.0mm 0 W/m2
07:51 39.6 °F /  4.2 °C 38.8 °F /  3.8 °C 30.4in /  1030.1hPa NW 2mph /  3.2km/h 3mph /  4.8km/h 97% 0in /  0.0mm 0 W/m2
07:56 39.6 °F /  4.2 °C 38.8 °F /  3.8 °C 30.4in /  1030.1hPa West 0.9mph /  1.4km/h 3mph /  4.8km/h 97% 0in /  0.0mm 0 W/m2
08:01 39.6 °F /  4.2 °C 38.8 °F /  3.8 °C 30.4in /  1030.5hPa Calm   1mph /  1.6km/h 97% 0in /  0.0mm 5 W/m2
08:06 39.4 °F /  4.1 °C 38.7 °F /  3.7 °C 30.4in /  1030.5hPa West 2mph /  3.2km/h 2mph /  3.2km/h 97% 0in /  0.0mm 7 W/m2
08:11 39.4 °F /  4.1 °C 38.7 °F /  3.7 °C 30.4in /  1030.5hPa WNW 2mph /  3.2km/h 2mph /  3.2km/h 97% 0in /  0.0mm 9 W/m2
08:16 39.4 °F /  4.1 °C 38.7 °F /  3.7 °C 30.4in /  1030.5hPa WNW 2mph /  3.2km/h 3mph /  4.8km/h 97% 0in /  0.0mm 11 W/m2
08:21 39.4 °F /  4.1 °C 38.7 °F /  3.7 °C 30.4in /  1030.5hPa NW 0.9mph /  1.4km/h 4mph /  6.4km/h 97% 0in /  0.0mm 12 W/m2
08:26 39.4 °F /  4.1 °C 38.7 °F /  3.7 °C 30.4in /  1030.5hPa NW 0.9mph /  1.4km/h 3mph /  4.8km/h 97% 0in /  0.0mm 18 W/m2
08:31 39.4 °F /  4.1 °C 38.7 °F /  3.7 °C 30.4in /  1030.8hPa West 0.9mph /  1.4km/h 3mph /  4.8km/h 97% 0in /  0.0mm 21 W/m2
08:36 39.4 °F /  4.1 °C 38.7 °F /  3.7 °C 30.4in /  1030.8hPa WNW 2mph /  3.2km/h 3mph /  4.8km/h 97% 0in /  0.0mm 25 W/m2
08:41 39.6 °F /  4.2 °C 38.8 °F /  3.8 °C 30.4in /  1030.8hPa NW 2mph /  3.2km/h 3mph /  4.8km/h 97% 0in /  0.0mm 28 W/m2
08:46 39.6 °F /  4.2 °C 38.8 °F /  3.8 °C 30.4in /  1030.8hPa West 2mph /  3.2km/h 6mph /  9.7km/h 97% 0in /  0.0mm 30 W/m2
08:51 39.6 °F /  4.2 °C 38.8 °F /  3.8 °C 30.4in /  1030.8hPa Calm   2mph /  3.2km/h 97% 0in /  0.0mm 33 W/m2
08:56 39.6 °F /  4.2 °C 38.8 °F /  3.8 °C 30.4in /  1030.8hPa WNW 2mph /  3.2km/h 5mph /  8km/h 97% 0in /  0.0mm 33 W/m2
09:01 39.7 °F /  4.3 °C 39 °F /  3.9 °C 30.4in /  1030.8hPa Calm     97% 0in /  0.0mm 35 W/m2
09:06 39.9 °F /  4.4 °C 39.2 °F /  4 °C 30.4in /  1030.8hPa Calm   2mph /  3.2km/h 97% 0in /  0.0mm 35 W/m2
09:11 39.9 °F /  4.4 °C 39.2 °F /  4 °C 30.4in /  1030.8hPa Calm     97% 0in /  0.0mm 33 W/m2
09:16 40.1 °F /  4.5 °C 39.4 °F /  4.1 °C 30.4in /  1030.8hPa Calm   1mph /  1.6km/h 97% 0in /  0.0mm 32 W/m2
09:21 40.3 °F /  4.6 °C 39.6 °F /  4.2 °C 30.5in /  1031.2hPa Calm   1mph /  1.6km/h 97% 0in /  0.0mm 28 W/m2
09:26 40.3 °F /  4.6 °C 39.6 °F /  4.2 °C 30.5in /  1031.2hPa Calm   3mph /  4.8km/h 97% 0in /  0.0mm 33 W/m2
09:31 40.3 °F /  4.6 °C 39.6 °F /  4.2 °C 30.5in /  1031.2hPa Calm     97% 0in /  0.0mm 44 W/m2
09:36 40.3 °F /  4.6 °C 39.6 °F /  4.2 °C 30.5in /  1031.2hPa Calm   3mph /  4.8km/h 97% 0in /  0.0mm 46 W/m2
09:41 40.5 °F /  4.7 °C 39.7 °F /  4.3 °C 30.5in /  1031.2hPa West 2mph /  3.2km/h 2mph /  3.2km/h 97% 0in /  0.0mm 51 W/m2
09:46 40.5 °F /  4.7 °C 39.7 °F /  4.3 °C 30.5in /  1031.2hPa West 0.9mph /  1.4km/h 3mph /  4.8km/h 97% 0in /  0.0mm 53 W/m2
09:51 40.5 °F /  4.7 °C 39.7 °F /  4.3 °C 30.4in /  1030.8hPa Calm   1mph /  1.6km/h 97% 0in /  0.0mm 56 W/m2
09:56 40.6 °F /  4.8 °C 39.9 °F /  4.4 °C 30.5in /  1031.2hPa Calm   2mph /  3.2km/h 97% 0in /  0.0mm 69 W/m2
10:01 40.6 °F /  4.8 °C 39.9 °F /  4.4 °C 30.4in /  1030.8hPa WNW 0.9mph /  1.4km/h 1mph /  1.6km/h 97% 0in /  0.0mm 65 W/m2
10:06 40.8 °F /  4.9 °C 40.1 °F /  4.5 °C 30.4in /  1030.8hPa WNW 0.9mph /  1.4km/h 2mph /  3.2km/h 97% 0in /  0.0mm 77 W/m2
10:11 40.8 °F /  4.9 °C 40.1 °F /  4.5 °C 30.4in /  1030.8hPa West 0.9mph /  1.4km/h 3mph /  4.8km/h 97% 0in /  0.0mm 70 W/m2
10:16 40.8 °F /  4.9 °C 40.1 °F /  4.5 °C 30.5in /  1031.2hPa Calm   1mph /  1.6km/h 97% 0in /  0.0mm 67 W/m2
10:21 40.8 °F /  4.9 °C 40.1 °F /  4.5 °C 30.5in /  1031.2hPa West 2mph /  3.2km/h 3mph /  4.8km/h 97% 0in /  0.0mm 63 W/m2
10:26 41 °F /  5 °C 40.3 °F /  4.6 °C 30.5in /  1031.2hPa Calm     97% 0in /  0.0mm 62 W/m2
10:31 41.2 °F /  5.1 °C 40.5 °F /  4.7 °C 30.5in /  1031.2hPa Calm   2mph /  3.2km/h 97% 0in /  0.0mm 67 W/m2
10:36 41.2 °F /  5.1 °C 40.5 °F /  4.7 °C 30.5in /  1031.2hPa West 2.9mph /  4.7km/h 4mph /  6.4km/h 97% 0in /  0.0mm 84 W/m2
10:41 41.4 °F /  5.2 °C 40.6 °F /  4.8 °C 30.5in /  1031.5hPa WNW 0.9mph /  1.4km/h 3mph /  4.8km/h 97% 0in /  0.0mm 81 W/m2
10:46 41.4 °F /  5.2 °C 40.6 °F /  4.8 °C 30.5in /  1031.5hPa Calm     97% 0in /  0.0mm 91 W/m2
10:51 41.5 °F /  5.3 °C 40.8 °F /  4.9 °C 30.5in /  1031.5hPa Calm   3mph /  4.8km/h 97% 0in /  0.0mm 81 W/m2
10:56 41.7 °F /  5.4 °C 41 °F /  5 °C 30.5in /  1031.5hPa ESE 2.9mph /  4.7km/h 3mph /  4.8km/h 97% 0in /  0.0mm 77 W/m2
11:01 41.9 °F /  5.5 °C 41.2 °F /  5.1 °C 30.5in /  1031.5hPa Calm     97% 0in /  0.0mm 74 W/m2
11:06 41.9 °F /  5.5 °C 41.2 °F /  5.1 °C 30.5in /  1031.8hPa Calm     97% 0in /  0.0mm 76 W/m2
11:11 41.9 °F /  5.5 °C 41.2 °F /  5.1 °C 30.5in /  1031.8hPa ENE 2mph /  3.2km/h 4mph /  6.4km/h 97% 0in /  0.0mm 84 W/m2
11:16 41.9 °F /  5.5 °C 41.2 °F /  5.1 °C 30.5in /  1031.5hPa NW 0.9mph /  1.4km/h 3mph /  4.8km/h 97% 0in /  0.0mm 90 W/m2
11:21 42.1 °F /  5.6 °C 41.4 °F /  5.2 °C 30.5in /  1031.8hPa WNW 2.9mph /  4.7km/h 3mph /  4.8km/h 97% 0in /  0.0mm 76 W/m2
11:26 41.9 °F /  5.5 °C 41.2 °F /  5.1 °C 30.5in /  1031.8hPa WNW 2.9mph /  4.7km/h 3mph /  4.8km/h 97% 0in /  0.0mm 74 W/m2
11:31 42.1 °F /  5.6 °C 41.4 °F /  5.2 °C 30.5in /  1031.8hPa WNW 2mph /  3.2km/h 3mph /  4.8km/h 97% 0in /  0.0mm 76 W/m2
11:36 42.3 °F /  5.7 °C 41.5 °F /  5.3 °C 30.5in /  1031.5hPa WNW 4.9mph /  7.9km/h 7mph /  11.3km/h 97% 0in /  0.0mm 90 W/m2
11:41 42.4 °F /  5.8 °C 41.7 °F /  5.4 °C 30.5in /  1031.5hPa West 0.9mph /  1.4km/h 2mph /  3.2km/h 97% 0in /  0.0mm 109 W/m2
11:46 42.6 °F /  5.9 °C 41.9 °F /  5.5 °C 30.5in /  1031.5hPa Calm   7mph /  11.3km/h 97% 0in /  0.0mm 107 W/m2
11:51 42.6 °F /  5.9 °C 41.9 °F /  5.5 °C 30.5in /  1031.5hPa Calm     97% 0in /  0.0mm 90 W/m2
11:56 42.6 °F /  5.9 °C 41.9 °F /  5.5 °C 30.5in /  1031.5hPa SW 2.9mph /  4.7km/h 5mph /  8km/h 97% 0in /  0.0mm 102 W/m2
12:01 42.8 °F /  6 °C 42.1 °F /  5.6 °C 30.5in /  1031.2hPa Calm   1mph /  1.6km/h 97% 0in /  0.0mm 104 W/m2
12:06 43 °F /  6.1 °C 42.3 °F /  5.7 °C 30.5in /  1031.2hPa NW 2.9mph /  4.7km/h 5mph /  8km/h 97% 0in /  0.0mm 77 W/m2
12:11 43.2 °F /  6.2 °C 42.4 °F /  5.8 °C 30.5in /  1031.2hPa NW 2.9mph /  4.7km/h 3mph /  4.8km/h 97% 0in /  0.0mm 84 W/m2
12:16 43.2 °F /  6.2 °C 42.4 °F /  5.8 °C 30.5in /  1031.2hPa NW 2mph /  3.2km/h 6mph /  9.7km/h 97% 0in /  0.0mm 84 W/m2
12:21 43 °F /  6.1 °C 41.9 °F /  5.5 °C 30.5in /  1031.2hPa NW 0.9mph /  1.4km/h 4mph /  6.4km/h 96% 0in /  0.0mm 74 W/m2
12:26 43.2 °F /  6.2 °C 42.1 °F /  5.6 °C 30.5in /  1031.2hPa Calm   5mph /  8km/h 96% 0in /  0.0mm 86 W/m2
12:31 43.2 °F /  6.2 °C 42.1 °F /  5.6 °C 30.5in /  1031.2hPa Calm   3mph /  4.8km/h 96% 0in /  0.0mm 77 W/m2
12:36 43.3 °F /  6.3 °C 42.3 °F /  5.7 °C 30.5in /  1031.2hPa WNW 0.9mph /  1.4km/h 2mph /  3.2km/h 96% 0in /  0.0mm 81 W/m2
12:41 43.3 °F /  6.3 °C 42.3 °F /  5.7 °C 30.5in /  1031.2hPa WNW 2mph /  3.2km/h 2mph /  3.2km/h 96% 0in /  0.0mm 76 W/m2
12:46 43.5 °F /  6.4 °C 42.4 °F /  5.8 °C 30.4in /  1030.8hPa NW 0.9mph /  1.4km/h 1mph /  1.6km/h 96% 0in /  0.0mm 79 W/m2
12:51 43.5 °F /  6.4 °C 42.4 °F /  5.8 °C 30.5in /  1031.2hPa Calm   2mph /  3.2km/h 96% 0in /  0.0mm 83 W/m2
12:56 43.7 °F /  6.5 °C 42.6 °F /  5.9 °C 30.5in /  1031.2hPa NW 0.9mph /  1.4km/h 4mph /  6.4km/h 96% 0in /  0.0mm 76 W/m2
13:02 43.9 °F /  6.6 °C 42.6 °F /  5.9 °C 30.5in /  1031.2hPa NNW 2mph /  3.2km/h 2mph /  3.2km/h 95% 0in /  0.0mm 77 W/m2
13:07 43.9 °F /  6.6 °C 42.6 °F /  5.9 °C 30.5in /  1031.2hPa West 2mph /  3.2km/h 3mph /  4.8km/h 95% 0in /  0.0mm 90 W/m2
13:12 44.1 °F /  6.7 °C 42.8 °F /  6 °C 30.5in /  1031.2hPa Calm   1mph /  1.6km/h 95% 0in /  0.0mm 90 W/m2
13:17 44.1 °F /  6.7 °C 42.8 °F /  6 °C 30.5in /  1031.2hPa West 2.9mph /  4.7km/h 4mph /  6.4km/h 95% 0in /  0.0mm 90 W/m2
13:22 44.2 °F /  6.8 °C 42.6 °F /  5.9 °C 30.5in /  1031.2hPa Calm   1mph /  1.6km/h 94% 0in /  0.0mm 91 W/m2
13:27 44.2 °F /  6.8 °C 42.6 °F /  5.9 °C 30.5in /  1031.2hPa Calm   4mph /  6.4km/h 94% 0in /  0.0mm 90 W/m2
13:32 44.4 °F /  6.9 °C 42.8 °F /  6 °C 30.5in /  1031.2hPa West 2mph /  3.2km/h 4mph /  6.4km/h 94% 0in /  0.0mm 107 W/m2
13:37 44.6 °F /  7 °C 43 °F /  6.1 °C 30.5in /  1031.2hPa Calm   1mph /  1.6km/h 94% 0in /  0.0mm 102 W/m2
13:42 44.8 °F /  7.1 °C 43.2 °F /  6.2 °C 30.5in /  1031.2hPa West 0.9mph /  1.4km/h 2mph /  3.2km/h 94% 0in /  0.0mm 100 W/m2
13:47 44.8 °F /  7.1 °C 42.8 °F /  6 °C 30.5in /  1031.2hPa Calm   1mph /  1.6km/h 93% 0in /  0.0mm 88 W/m2
13:52 45 °F /  7.2 °C 43 °F /  6.1 °C 30.4in /  1030.8hPa West 4mph /  6.4km/h 4mph /  6.4km/h 93% 0in /  0.0mm 102 W/m2
13:57 45 °F /  7.2 °C 43 °F /  6.1 °C 30.4in /  1030.8hPa West 4mph /  6.4km/h 4mph /  6.4km/h 93% 0in /  0.0mm 97 W/m2
14:02 45 °F /  7.2 °C 42.8 °F /  6 °C 30.4in /  1030.8hPa WNW 4mph /  6.4km/h 4mph /  6.4km/h 92% 0in /  0.0mm 118 W/m2
14:07 44.8 °F /  7.1 °C 42.6 °F /  5.9 °C 30.4in /  1030.8hPa WNW 2.9mph /  4.7km/h 4mph /  6.4km/h 92% 0in /  0.0mm 98 W/m2
14:12 45 °F /  7.2 °C 42.8 °F /  6 °C 30.4in /  1030.8hPa West 2mph /  3.2km/h 5mph /  8km/h 92% 0in /  0.0mm 98 W/m2
14:17 44.8 °F /  7.1 °C 42.6 °F /  5.9 °C 30.4in /  1030.8hPa NW 2mph /  3.2km/h 3mph /  4.8km/h 92% 0in /  0.0mm 84 W/m2
14:22 45 °F /  7.2 °C 42.8 °F /  6 °C 30.4in /  1030.8hPa NNW 0.9mph /  1.4km/h 4mph /  6.4km/h 92% 0in /  0.0mm 91 W/m2
14:27 45 °F /  7.2 °C 42.8 °F /  6 °C 30.4in /  1030.8hPa West 2mph /  3.2km/h 6mph /  9.7km/h 92% 0in /  0.0mm 91 W/m2
14:32 45 °F /  7.2 °C 42.8 °F /  6 °C 30.4in /  1030.8hPa Calm   3mph /  4.8km/h 92% 0in /  0.0mm 113 W/m2
14:37 45.1 °F /  7.3 °C 43 °F /  6.1 °C 30.4in /  1030.8hPa SW 0.9mph /  1.4km/h 3mph /  4.8km/h 92% 0in /  0.0mm 134 W/m2
14:42 45.3 °F /  7.4 °C 43.2 °F /  6.2 °C 30.4in /  1030.8hPa WSW 0.9mph /  1.4km/h 4mph /  6.4km/h 92% 0in /  0.0mm 90 W/m2
14:47 45.1 °F /  7.3 °C 42.6 °F /  5.9 °C 30.4in /  1030.5hPa WNW 2.9mph /  4.7km/h 3mph /  4.8km/h 91% 0in /  0.0mm 91 W/m2
14:52 45.1 °F /  7.3 °C 42.6 °F /  5.9 °C 30.4in /  1030.8hPa WNW 2.9mph /  4.7km/h 3mph /  4.8km/h 91% 0in /  0.0mm 88 W/m2
14:57 45.1 °F /  7.3 °C 42.6 °F /  5.9 °C 30.4in /  1030.8hPa West 2mph /  3.2km/h 2mph /  3.2km/h 91% 0in /  0.0mm 86 W/m2
15:02 45.1 °F /  7.3 °C 42.6 °F /  5.9 °C 30.4in /  1030.8hPa WSW 2mph /  3.2km/h 4mph /  6.4km/h 91% 0in /  0.0mm 74 W/m2
15:07 45.1 °F /  7.3 °C 42.6 °F /  5.9 °C 30.4in /  1030.8hPa West 2mph /  3.2km/h 8mph /  12.9km/h 91% 0in /  0.0mm 76 W/m2
15:12 45.1 °F /  7.3 °C 42.4 °F /  5.8 °C 30.4in /  1030.8hPa WNW 2mph /  3.2km/h 6mph /  9.7km/h 90% 0in /  0.0mm 83 W/m2
15:17 45.1 °F /  7.3 °C 42.4 °F /  5.8 °C 30.4in /  1030.8hPa WSW 2.9mph /  4.7km/h 8mph /  12.9km/h 90% 0in /  0.0mm 109 W/m2
15:22 45.1 °F /  7.3 °C 42.6 °F /  5.9 °C 30.4in /  1030.8hPa West 2mph /  3.2km/h 2mph /  3.2km/h 91% 0in /  0.0mm 127 W/m2
15:27 45.3 °F /  7.4 °C 42.8 °F /  6 °C 30.4in /  1030.8hPa SW 2mph /  3.2km/h 5mph /  8km/h 91% 0in /  0.0mm 114 W/m2
15:32 45.7 °F /  7.6 °C 43.2 °F /  6.2 °C 30.4in /  1030.8hPa Calm   2mph /  3.2km/h 91% 0in /  0.0mm 79 W/m2
15:37 45.9 °F /  7.7 °C 43.3 °F /  6.3 °C 30.4in /  1030.8hPa Calm   1mph /  1.6km/h 91% 0in /  0.0mm 81 W/m2
15:42 45.9 °F /  7.7 °C 43.3 °F /  6.3 °C 30.4in /  1030.8hPa NW 0.9mph /  1.4km/h 4mph /  6.4km/h 91% 0in /  0.0mm 67 W/m2
15:47 45.9 °F /  7.7 °C 43.2 °F /  6.2 °C 30.4in /  1030.8hPa NW 2mph /  3.2km/h 4mph /  6.4km/h 90% 0in /  0.0mm 53 W/m2
15:52 45.9 °F /  7.7 °C 43.2 °F /  6.2 °C 30.4in /  1030.8hPa West 2mph /  3.2km/h 4mph /  6.4km/h 90% 0in /  0.0mm 44 W/m2
15:57 45.9 °F /  7.7 °C 43.2 °F /  6.2 °C 30.4in /  1030.8hPa West 0.9mph /  1.4km/h 3mph /  4.8km/h 90% 0in /  0.0mm 42 W/m2
16:02 45.9 °F /  7.7 °C 43.2 °F /  6.2 °C 30.4in /  1030.8hPa West 0.9mph /  1.4km/h 4mph /  6.4km/h 90% 0in /  0.0mm 40 W/m2
16:07 45.9 °F /  7.7 °C 43.3 °F /  6.3 °C 30.4in /  1030.8hPa WNW 2mph /  3.2km/h 4mph /  6.4km/h 91% 0in /  0.0mm 33 W/m2
16:12 45.7 °F /  7.6 °C 43 °F /  6.1 °C 30.4in /  1030.8hPa WNW 4mph /  6.4km/h 6mph /  9.7km/h 90% 0in /  0.0mm 28 W/m2
16:17 45.5 °F /  7.5 °C 42.8 °F /  6 °C 30.4in /  1030.8hPa Calm   4mph /  6.4km/h 90% 0in /  0.0mm 26 W/m2
16:22 45.3 °F /  7.4 °C 42.8 °F /  6 °C 30.4in /  1030.8hPa WSW 2mph /  3.2km/h 6mph /  9.7km/h 91% 0in /  0.0mm 18 W/m2
16:27 45.1 °F /  7.3 °C 42.6 °F /  5.9 °C 30.4in /  1030.8hPa WNW 2.9mph /  4.7km/h 8mph /  12.9km/h 91% 0in /  0.0mm 14 W/m2
16:32 45 °F /  7.2 °C 42.4 °F /  5.8 °C 30.4in /  1030.8hPa West 2mph /  3.2km/h 2mph /  3.2km/h 91% 0in /  0.0mm 12 W/m2
16:37 45 °F /  7.2 °C 42.4 °F /  5.8 °C 30.5in /  1031.2hPa West 4mph /  6.4km/h 4mph /  6.4km/h 91% 0in /  0.0mm 11 W/m2
16:42 44.8 °F /  7.1 °C 42.6 °F /  5.9 °C 30.4in /  1030.8hPa Calm   3mph /  4.8km/h 92% 0in /  0.0mm 7 W/m2
16:47 44.4 °F /  6.9 °C 42.3 °F /  5.7 °C 30.4in /  1030.8hPa West 0.9mph /  1.4km/h 4mph /  6.4km/h 92% 0in /  0.0mm 0 W/m2
16:52 44.2 °F /  6.8 °C 42.1 °F /  5.6 °C 30.4in /  1030.8hPa WNW 2.9mph /  4.7km/h 4mph /  6.4km/h 92% 0in /  0.0mm 0 W/m2
16:57 44.1 °F /  6.7 °C 41.9 °F /  5.5 °C 30.4in /  1030.8hPa WSW 2mph /  3.2km/h 3mph /  4.8km/h 92% 0in /  0.0mm 0 W/m2
17:02 43.9 °F /  6.6 °C 41.7 °F /  5.4 °C 30.4in /  1030.8hPa WNW 2.9mph /  4.7km/h 9mph /  14.5km/h 92% 0in /  0.0mm 0 W/m2
17:07 43.5 °F /  6.4 °C 41.4 °F /  5.2 °C 30.4in /  1030.8hPa West 0.9mph /  1.4km/h 2mph /  3.2km/h 92% 0in /  0.0mm 0 W/m2
17:12 43.5 °F /  6.4 °C 41.4 °F /  5.2 °C 30.4in /  1030.8hPa West 2mph /  3.2km/h 9mph /  14.5km/h 92% 0in /  0.0mm 0 W/m2
17:17 43.3 °F /  6.3 °C 41.5 °F /  5.3 °C 30.4in /  1030.8hPa NW 2.9mph /  4.7km/h 3mph /  4.8km/h 93% 0in /  0.0mm 0 W/m2
17:22 43.3 °F /  6.3 °C 41.5 °F /  5.3 °C 30.4in /  1030.8hPa WNW 7mph /  11.3km/h 7mph /  11.3km/h 93% 0in /  0.0mm 0 W/m2
17:27 43.3 °F /  6.3 °C 41.5 °F /  5.3 °C 30.4in /  1030.8hPa WNW 2mph /  3.2km/h 5mph /  8km/h 93% 0in /  0.0mm 0 W/m2
17:32 43.3 °F /  6.3 °C 41.5 °F /  5.3 °C 30.4in /  1030.8hPa WNW 0.9mph /  1.4km/h 7mph /  11.3km/h 93% 0in /  0.0mm 0 W/m2
17:37 43.3 °F /  6.3 °C 41.5 °F /  5.3 °C 30.4in /  1030.8hPa West 2.9mph /  4.7km/h 3mph /  4.8km/h 93% 0in /  0.0mm 0 W/m2
17:42 43.3 °F /  6.3 °C 41.5 °F /  5.3 °C 30.4in /  1030.8hPa West 2mph /  3.2km/h 3mph /  4.8km/h 93% 0in /  0.0mm 0 W/m2
17:47 43.2 °F /  6.2 °C 41.4 °F /  5.2 °C 30.4in /  1030.8hPa WNW 4mph /  6.4km/h 4mph /  6.4km/h 93% 0in /  0.0mm 0 W/m2
17:52 43.2 °F /  6.2 °C 41.4 °F /  5.2 °C 30.4in /  1030.8hPa West 2mph /  3.2km/h 3mph /  4.8km/h 93% 0in /  0.0mm 0 W/m2
17:57 43 °F /  6.1 °C 41.2 °F /  5.1 °C 30.4in /  1030.8hPa WSW 2.9mph /  4.7km/h 4mph /  6.4km/h 93% 0in /  0.0mm 0 W/m2
18:02 43 °F /  6.1 °C 41.2 °F /  5.1 °C 30.4in /  1030.8hPa West 2.9mph /  4.7km/h 4mph /  6.4km/h 93% 0in /  0.0mm 0 W/m2
18:07 42.8 °F /  6 °C 41 °F /  5 °C 30.4in /  1030.8hPa WNW 2.9mph /  4.7km/h 3mph /  4.8km/h 93% 0in /  0.0mm 0 W/m2
18:12 42.6 °F /  5.9 °C 40.8 °F /  4.9 °C 30.5in /  1031.2hPa WSW 2.9mph /  4.7km/h 4mph /  6.4km/h 93% 0in /  0.0mm 0 W/m2
18:17 42.6 °F /  5.9 °C 41 °F /  5 °C 30.5in /  1031.2hPa WNW 2mph /  3.2km/h 4mph /  6.4km/h 94% 0in /  0.0mm 0 W/m2
18:22 42.4 °F /  5.8 °C 40.6 °F /  4.8 °C 30.5in /  1031.2hPa NW 2mph /  3.2km/h 5mph /  8km/h 93% 0in /  0.0mm 0 W/m2
18:27 42.3 °F /  5.7 °C 40.6 °F /  4.8 °C 30.5in /  1031.2hPa West 6.9mph /  11.1km/h 7mph /  11.3km/h 94% 0in /  0.0mm 0 W/m2
18:32 42.3 °F /  5.7 °C 40.6 °F /  4.8 °C 30.5in /  1031.2hPa WNW 4mph /  6.4km/h 7mph /  11.3km/h 94% 0in /  0.0mm 0 W/m2
18:37 42.3 °F /  5.7 °C 40.6 °F /  4.8 °C 30.5in /  1031.2hPa WSW 2.9mph /  4.7km/h 7mph /  11.3km/h 94% 0in /  0.0mm 0 W/m2
18:42 42.3 °F /  5.7 °C 40.6 °F /  4.8 °C 30.5in /  1031.2hPa WNW 2.9mph /  4.7km/h 6mph /  9.7km/h 94% 0in /  0.0mm 0 W/m2
18:47 42.3 °F /  5.7 °C 40.6 °F /  4.8 °C 30.5in /  1031.2hPa West 2.9mph /  4.7km/h 6mph /  9.7km/h 94% 0in /  0.0mm 0 W/m2
18:52 42.4 °F /  5.8 °C 40.8 °F /  4.9 °C 30.5in /  1031.5hPa West 2.9mph /  4.7km/h 5mph /  8km/h 94% 0in /  0.0mm 0 W/m2
18:57 42.3 °F /  5.7 °C 40.6 °F /  4.8 °C 30.5in /  1031.5hPa West 2mph /  3.2km/h 4mph /  6.4km/h 94% 0in /  0.0mm 0 W/m2
19:02 42.3 °F /  5.7 °C 40.6 °F /  4.8 °C 30.5in /  1031.5hPa West 4mph /  6.4km/h 9mph /  14.5km/h 94% 0in /  0.0mm 0 W/m2
19:07 42.3 °F /  5.7 °C 40.6 °F /  4.8 °C 30.5in /  1031.5hPa WNW 4mph /  6.4km/h 9mph /  14.5km/h 94% 0in /  0.0mm 0 W/m2
19:12 42.3 °F /  5.7 °C 40.6 °F /  4.8 °C 30.5in /  1031.5hPa West 2.9mph /  4.7km/h 7mph /  11.3km/h 94% 0in /  0.0mm 0 W/m2
19:17 42.3 °F /  5.7 °C 40.6 °F /  4.8 °C 30.5in /  1031.5hPa West 4mph /  6.4km/h 9mph /  14.5km/h 94% 0in /  0.0mm 0 W/m2
19:22 42.3 °F /  5.7 °C 40.6 °F /  4.8 °C 30.5in /  1031.5hPa West 4mph /  6.4km/h 8mph /  12.9km/h 94% 0in /  0.0mm 0 W/m2
19:27 42.3 °F /  5.7 °C 40.6 °F /  4.8 °C 30.5in /  1031.5hPa West 2.9mph /  4.7km/h 8mph /  12.9km/h 94% 0in /  0.0mm 0 W/m2
19:32 42.4 °F /  5.8 °C 40.8 °F /  4.9 °C 30.5in /  1031.5hPa West 2.9mph /  4.7km/h 8mph /  12.9km/h 94% 0in /  0.0mm 0 W/m2
19:37 42.4 °F /  5.8 °C 40.8 °F /  4.9 °C 30.5in /  1031.5hPa West 2.9mph /  4.7km/h 6mph /  9.7km/h 94% 0in /  0.0mm 0 W/m2
19:42 42.4 °F /  5.8 °C 40.8 °F /  4.9 °C 30.5in /  1031.5hPa WSW 4.9mph /  7.9km/h 7mph /  11.3km/h 94% 0in /  0.0mm 0 W/m2
19:47 42.4 °F /  5.8 °C 40.8 °F /  4.9 °C 30.5in /  1031.5hPa WNW 2.9mph /  4.7km/h 6mph /  9.7km/h 94% 0in /  0.0mm 0 W/m2
19:52 42.6 °F /  5.9 °C 41 °F /  5 °C 30.5in /  1031.5hPa WNW 2.9mph /  4.7km/h 5mph /  8km/h 94% 0in /  0.0mm 0 W/m2
19:57 42.6 °F /  5.9 °C 41 °F /  5 °C 30.5in /  1031.5hPa West 2.9mph /  4.7km/h 3mph /  4.8km/h 94% 0in /  0.0mm 0 W/m2
20:02 42.8 °F /  6 °C 41.2 °F /  5.1 °C 30.5in /  1031.5hPa Calm   5mph /  8km/h 94% 0in /  0.0mm 0 W/m2
20:07 42.8 °F /  6 °C 41.2 °F /  5.1 °C 30.5in /  1031.5hPa NNW 0.9mph /  1.4km/h 1mph /  1.6km/h 94% 0in /  0.0mm 0 W/m2
20:12 42.8 °F /  6 °C 41.2 °F /  5.1 °C 30.5in /  1031.5hPa Calm   1mph /  1.6km/h 94% 0in /  0.0mm 0 W/m2
20:17 42.8 °F /  6 °C 41.2 °F /  5.1 °C 30.5in /  1031.8hPa Calm     94% 0in /  0.0mm 0 W/m2
20:22 42.8 °F /  6 °C 41.2 °F /  5.1 °C 30.5in /  1031.8hPa Calm   1mph /  1.6km/h 94% 0in /  0.0mm 0 W/m2
20:27 42.8 °F /  6 °C 41.2 °F /  5.1 °C 30.5in /  1031.5hPa NE 0.9mph /  1.4km/h 1mph /  1.6km/h 94% 0in /  0.0mm 0 W/m2
20:32 42.8 °F /  6 °C 41.2 °F /  5.1 °C 30.5in /  1031.8hPa Calm     94% 0in /  0.0mm 0 W/m2
20:37 42.8 °F /  6 °C 41.2 °F /  5.1 °C 30.5in /  1031.5hPa Calm   1mph /  1.6km/h 94% 0in /  0.0mm 0 W/m2
20:42 42.6 °F /  5.9 °C 41 °F /  5 °C 30.5in /  1031.5hPa ESE 2.9mph /  4.7km/h 3mph /  4.8km/h 94% 0in /  0.0mm 0 W/m2
20:47 42.6 °F /  5.9 °C 41 °F /  5 °C 30.5in /  1031.5hPa East 2mph /  3.2km/h 3mph /  4.8km/h 94% 0in /  0.0mm 0 W/m2
20:52 42.4 °F /  5.8 °C 40.8 °F /  4.9 °C 30.5in /  1031.5hPa Calm     94% 0in /  0.0mm 0 W/m2
20:57 42.4 °F /  5.8 °C 40.8 °F /  4.9 °C 30.5in /  1031.8hPa Calm     94% 0in /  0.0mm 0 W/m2
21:02 42.3 °F /  5.7 °C 40.6 °F /  4.8 °C 30.5in /  1031.8hPa Calm     94% 0in /  0.0mm 0 W/m2
21:07 42.3 °F /  5.7 °C 40.6 °F /  4.8 °C 30.5in /  1031.8hPa Calm     94% 0in /  0.0mm 0 W/m2
21:12 42.3 °F /  5.7 °C 40.6 °F /  4.8 °C 30.5in /  1031.8hPa North 0.9mph /  1.4km/h 2mph /  3.2km/h 94% 0in /  0.0mm 0 W/m2
21:17 42.4 °F /  5.8 °C 40.8 °F /  4.9 °C 30.5in /  1031.8hPa Calm   2mph /  3.2km/h 94% 0in /  0.0mm 0 W/m2
21:22 42.6 °F /  5.9 °C 41.4 °F /  5.2 °C 30.5in /  1031.8hPa Calm     95% 0in /  0.0mm 0 W/m2
21:27 42.6 °F /  5.9 °C 41.4 °F /  5.2 °C 30.5in /  1031.8hPa Calm     95% 0in /  0.0mm 0 W/m2
21:32 42.8 °F /  6 °C 41.5 °F /  5.3 °C 30.5in /  1031.8hPa Calm     95% 0in /  0.0mm 0 W/m2
21:37 43 °F /  6.1 °C 41.7 °F /  5.4 °C 30.5in /  1032.2hPa Calm     95% 0in /  0.0mm 0 W/m2
21:42 43 °F /  6.1 °C 41.7 °F /  5.4 °C 30.5in /  1032.2hPa NW 0.9mph /  1.4km/h 1mph /  1.6km/h 95% 0in /  0.0mm 0 W/m2
21:47 43.2 °F /  6.2 °C 41.9 °F /  5.5 °C 30.5in /  1032.2hPa Calm   1mph /  1.6km/h 95% 0in /  0.0mm 0 W/m2
21:52 43.3 °F /  6.3 °C 42.1 °F /  5.6 °C 30.5in /  1032.2hPa West 2mph /  3.2km/h 3mph /  4.8km/h 95% 0in /  0.0mm 0 W/m2
21:57 43.3 °F /  6.3 °C 41.7 °F /  5.4 °C 30.5in /  1032.2hPa West 2.9mph /  4.7km/h 3mph /  4.8km/h 94% 0in /  0.0mm 0 W/m2
22:02 43.5 °F /  6.4 °C 41.9 °F /  5.5 °C 30.5in /  1032.2hPa WNW 2mph /  3.2km/h 4mph /  6.4km/h 94% 0in /  0.0mm 0 W/m2
22:07 43.7 °F /  6.5 °C 42.1 °F /  5.6 °C 30.5in /  1032.2hPa WNW 0.9mph /  1.4km/h 2mph /  3.2km/h 94% 0in /  0.0mm 0 W/m2
22:13 43.9 °F /  6.6 °C 42.3 °F /  5.7 °C 30.5in /  1032.2hPa WNW 0.9mph /  1.4km/h 4mph /  6.4km/h 94% 0in /  0.0mm 0 W/m2
22:18 43.9 °F /  6.6 °C 42.3 °F /  5.7 °C 30.5in /  1032.2hPa Calm   1mph /  1.6km/h 94% 0in /  0.0mm 0 W/m2
22:23 43.9 °F /  6.6 °C 42.3 °F /  5.7 °C 30.5in /  1032.2hPa WNW 0.9mph /  1.4km/h 2mph /  3.2km/h 94% 0in /  0.0mm 0 W/m2
22:28 44.1 °F /  6.7 °C 42.4 °F /  5.8 °C 30.5in /  1032.2hPa WNW 2mph /  3.2km/h 2mph /  3.2km/h 94% 0in /  0.0mm 0 W/m2
22:33 44.1 °F /  6.7 °C 42.1 °F /  5.6 °C 30.5in /  1032.5hPa West 0.9mph /  1.4km/h 2mph /  3.2km/h 93% 0in /  0.0mm 0 W/m2
22:38 44.1 °F /  6.7 °C 42.1 °F /  5.6 °C 30.5in /  1032.2hPa West 0.9mph /  1.4km/h 3mph /  4.8km/h 93% 0in /  0.0mm 0 W/m2
22:43 44.1 °F /  6.7 °C 42.1 °F /  5.6 °C 30.5in /  1032.2hPa West 0.9mph /  1.4km/h 2mph /  3.2km/h 93% 0in /  0.0mm 0 W/m2
22:48 44.1 °F /  6.7 °C 42.1 °F /  5.6 °C 30.5in /  1032.2hPa Calm     93% 0in /  0.0mm 0 W/m2
22:53 44.1 °F /  6.7 °C 42.1 °F /  5.6 °C 30.5in /  1032.2hPa Calm   2mph /  3.2km/h 93% 0in /  0.0mm 0 W/m2
22:58 44.1 °F /  6.7 °C 42.1 °F /  5.6 °C 30.5in /  1032.2hPa Calm   1mph /  1.6km/h 93% 0in /  0.0mm 0 W/m2
23:03 43.9 °F /  6.6 °C 41.9 °F /  5.5 °C 30.5in /  1032.2hPa West 2.9mph /  4.7km/h 3mph /  4.8km/h 93% 0in /  0.0mm 0 W/m2
23:08 43.9 °F /  6.6 °C 41.9 °F /  5.5 °C 30.5in /  1032.5hPa West 0.9mph /  1.4km/h 1mph /  1.6km/h 93% 0in /  0.0mm 0 W/m2
23:13 43.9 °F /  6.6 °C 41.9 °F /  5.5 °C 30.5in /  1032.2hPa SSW 4.9mph /  7.9km/h 5mph /  8km/h 93% 0in /  0.0mm 0 W/m2
23:18 43.9 °F /  6.6 °C 41.9 °F /  5.5 °C 30.5in /  1032.2hPa West 2mph /  3.2km/h 6mph /  9.7km/h 93% 0in /  0.0mm 0 W/m2
23:23 43.9 °F /  6.6 °C 41.9 °F /  5.5 °C 30.5in /  1032.2hPa WNW 2mph /  3.2km/h 4mph /  6.4km/h 93% 0in /  0.0mm 0 W/m2
23:28 43.7 °F /  6.5 °C 41.7 °F /  5.4 °C 30.5in /  1032.2hPa WNW 2mph /  3.2km/h 6mph /  9.7km/h 93% 0in /  0.0mm 0 W/m2
23:33 43.5 °F /  6.4 °C 41.7 °F /  5.4 °C 30.5in /  1032.2hPa NW 0.9mph /  1.4km/h 4mph /  6.4km/h 93% 0in /  0.0mm 0 W/m2
23:38 43.5 °F /  6.4 °C 41.9 °F /  5.5 °C 30.5in /  1032.2hPa WSW 2mph /  3.2km/h 3mph /  4.8km/h 94% 0in /  0.0mm 0 W/m2
23:43 43.5 °F /  6.4 °C 41.9 °F /  5.5 °C 30.5in /  1032.2hPa NW 0.9mph /  1.4km/h 3mph /  4.8km/h 94% 0in /  0.0mm 0 W/m2
23:48 43.5 °F /  6.4 °C 41.9 °F /  5.5 °C 30.5in /  1032.2hPa NNW 2mph /  3.2km/h 2mph /  3.2km/h 94% 0in /  0.0mm 0 W/m2
23:53 43.5 °F /  6.4 °C 41.9 °F /  5.5 °C 30.5in /  1032.2hPa WNW 2mph /  3.2km/h 2mph /  3.2km/h 94% 0in /  0.0mm 0 W/m2
23:58 43.3 °F /  6.3 °C 41.7 °F /  5.4 °C 30.5in /  1032.2hPa WNW 0.9mph /  1.4km/h 4mph /  6.4km/h 94% 0in /  0.0mm 0 W/m2
Juneau County Weather
Compliments of Weather Underground - 4 mb